createdAt,value
2023-05-11T00:00:10.235Z,12.69
2023-05-11T00:01:12.756Z,12.69
2023-05-11T00:02:15.479Z,12.70
2023-05-11T00:03:18.126Z,12.68
2023-05-11T00:04:20.580Z,12.68
2023-05-11T00:05:22.982Z,12.67
2023-05-11T00:06:25.290Z,12.67
2023-05-11T00:07:27.624Z,12.66
2023-05-11T00:08:30.061Z,12.65
2023-05-11T00:09:32.326Z,12.65
2023-05-11T00:10:34.544Z,12.64
2023-05-11T00:11:36.983Z,12.63
2023-05-11T00:12:39.270Z,12.63
2023-05-11T00:13:41.897Z,12.63
2023-05-11T00:14:44.180Z,12.63
2023-05-11T00:15:46.540Z,12.62
2023-05-11T00:16:48.883Z,12.62
2023-05-11T00:17:51.265Z,12.60
2023-05-11T00:18:53.659Z,12.60
2023-05-11T00:19:57.564Z,12.58
2023-05-11T00:20:59.821Z,12.58
2023-05-11T00:22:02.095Z,12.56
2023-05-11T00:23:04.557Z,12.57
2023-05-11T00:24:07.521Z,12.54
2023-05-11T00:25:10.042Z,12.53
2023-05-11T00:26:12.344Z,12.51
2023-05-11T00:27:15.307Z,12.50
2023-05-11T00:28:17.616Z,12.49
2023-05-11T00:29:20.179Z,12.46
2023-05-11T00:30:22.491Z,12.45
2023-05-11T00:31:30.169Z,12.42
2023-05-11T00:32:32.817Z,12.41
2023-05-11T00:33:35.399Z,12.40
2023-05-11T00:34:38.737Z,12.38
2023-05-11T00:35:41.152Z,12.35
2023-05-11T00:36:44.359Z,12.35
2023-05-11T00:37:46.682Z,12.33
2023-05-11T00:38:50.277Z,12.32
2023-05-11T00:39:52.621Z,12.30
2023-05-11T00:40:55.617Z,12.28
2023-05-11T00:41:58.243Z,12.26
2023-05-11T00:43:01.851Z,12.24
2023-05-11T00:44:04.623Z,12.24
2023-05-11T00:45:07.690Z,12.23
2023-05-11T00:46:10.947Z,12.21
2023-05-11T00:47:13.476Z,12.19
2023-05-11T00:48:17.191Z,12.17
2023-05-11T00:49:21.691Z,12.15
2023-05-11T00:50:25.155Z,12.14
2023-05-11T00:51:28.629Z,12.12
2023-05-11T00:52:30.929Z,12.10
2023-05-11T00:53:33.790Z,12.07
2023-05-11T00:54:37.897Z,12.05
2023-05-11T00:55:40.621Z,12.04
2023-05-11T00:56:43.225Z,12.02
2023-05-11T00:57:45.815Z,12.00
2023-05-11T00:58:48.866Z,11.98
2023-05-11T00:59:51.299Z,11.97
2023-05-11T01:00:53.789Z,11.94
2023-05-11T01:01:56.723Z,11.94
2023-05-11T01:03:01.674Z,11.91
2023-05-11T01:04:04.198Z,11.88
2023-05-11T01:05:07.384Z,11.87
2023-05-11T01:06:44.805Z,11.85
2023-05-11T01:07:58.403Z,11.84
2023-05-11T01:09:09.679Z,11.81
2023-05-11T01:10:44.968Z,11.78
2023-05-11T01:12:27.892Z,11.76
2023-05-11T01:13:35.304Z,11.74
2023-05-11T01:15:01.123Z,11.71
2023-05-11T01:16:14.333Z,11.69
2023-05-11T01:17:30.452Z,11.67
2023-05-11T01:18:51.448Z,11.65
2023-05-11T01:20:04.498Z,11.64
2023-05-11T01:21:08.987Z,11.60
2023-05-11T01:22:34.208Z,11.59
2023-05-11T01:23:48.758Z,11.57
2023-05-11T01:25:33.763Z,11.54
2023-05-11T01:26:59.025Z,11.52
2023-05-11T01:28:26.187Z,11.49
2023-05-11T01:29:49.835Z,11.47
2023-05-11T01:31:02.711Z,11.44
2023-05-11T01:32:15.746Z,11.42
2023-05-11T01:33:25.257Z,11.41
2023-05-11T01:34:32.165Z,11.39
2023-05-11T01:35:43.086Z,11.38
2023-05-11T01:37:10.183Z,11.36
2023-05-11T01:38:19.482Z,11.35
2023-05-11T01:39:27.960Z,11.33
2023-05-11T01:40:34.415Z,11.31
2023-05-11T01:41:40.482Z,11.30
2023-05-11T01:42:47.953Z,11.29
2023-05-11T01:43:56.075Z,11.27
2023-05-11T01:45:01.550Z,11.27
2023-05-11T01:46:05.495Z,11.26
2023-05-11T01:47:11.822Z,11.25
2023-05-11T01:48:21.758Z,11.23
2023-05-11T01:49:24.654Z,11.22
2023-05-11T01:50:27.039Z,11.20
2023-05-11T01:51:34.858Z,11.19
2023-05-11T01:52:40.087Z,11.18
2023-05-11T01:53:44.675Z,11.16
2023-05-11T01:54:50.068Z,11.16
2023-05-11T01:55:54.698Z,11.15
2023-05-11T01:56:58.265Z,11.13
2023-05-11T01:58:03.558Z,11.13
2023-05-11T01:59:06.911Z,11.11
2023-05-11T02:00:09.962Z,11.10
2023-05-11T02:01:18.272Z,11.09
2023-05-11T02:02:21.960Z,11.09
2023-05-11T02:03:27.721Z,11.08
2023-05-11T02:04:31.898Z,11.07
2023-05-11T02:05:36.606Z,11.07
2023-05-11T02:06:40.521Z,11.06
2023-05-11T02:07:43.742Z,11.06
2023-05-11T02:08:47.552Z,11.05
2023-05-11T02:09:53.209Z,11.03
2023-05-11T02:10:59.483Z,11.04
2023-05-11T02:12:06.950Z,11.04
2023-05-11T02:13:11.176Z,11.02
2023-05-11T02:14:15.860Z,11.01
2023-05-11T02:15:19.693Z,11.01
2023-05-11T02:16:24.173Z,11.02
2023-05-11T02:17:27.421Z,10.99
2023-05-11T02:18:31.562Z,10.99
2023-05-11T02:19:37.360Z,11.00
2023-05-11T02:20:44.305Z,11.00
2023-05-11T02:21:49.958Z,10.99
2023-05-11T02:22:54.778Z,11.01
2023-05-11T02:23:59.301Z,10.99
2023-05-11T02:25:01.813Z,11.00
2023-05-11T02:26:05.791Z,10.98
2023-05-11T02:27:08.409Z,10.98
2023-05-11T02:28:10.873Z,10.99
2023-05-11T02:29:13.174Z,10.99
2023-05-11T02:30:15.984Z,10.99
2023-05-11T02:31:28.107Z,10.99
2023-05-11T02:32:35.217Z,10.99
2023-05-11T02:33:43.167Z,10.98
2023-05-11T02:34:54.549Z,10.99
2023-05-11T02:35:59.367Z,10.98
2023-05-11T02:37:09.728Z,10.98
2023-05-11T02:38:14.721Z,10.99
2023-05-11T02:39:22.154Z,10.98
2023-05-11T02:40:34.487Z,10.99
2023-05-11T02:41:46.272Z,10.97
2023-05-11T02:42:55.189Z,10.97
2023-05-11T02:44:03.431Z,10.96
2023-05-11T02:45:09.221Z,10.97
2023-05-11T02:46:17.457Z,10.97
2023-05-11T02:47:23.289Z,10.96
2023-05-11T02:48:34.686Z,10.95
2023-05-11T02:49:38.741Z,10.94
2023-05-11T02:50:44.601Z,10.94
2023-05-11T02:51:49.492Z,10.94
2023-05-11T02:52:55.972Z,10.95
2023-05-11T02:53:59.870Z,10.96
2023-05-11T02:55:06.674Z,10.94
2023-05-11T02:56:09.464Z,10.94
2023-05-11T02:57:12.131Z,10.94
2023-05-11T02:58:15.290Z,10.94
2023-05-11T02:59:23.348Z,10.92
2023-05-11T03:00:25.907Z,10.92
2023-05-11T03:01:30.854Z,10.92
2023-05-11T03:02:33.562Z,10.91
2023-05-11T03:03:36.381Z,10.92
2023-05-11T03:04:40.011Z,10.90
2023-05-11T03:05:43.972Z,10.91
2023-05-11T03:06:46.541Z,10.91
2023-05-11T03:07:48.823Z,10.91
2023-05-11T03:08:52.818Z,10.92
2023-05-11T03:09:55.214Z,10.91
2023-05-11T03:10:58.553Z,10.91
2023-05-11T03:12:04.864Z,10.90
2023-05-11T03:13:10.254Z,10.89
2023-05-11T03:14:13.701Z,10.90
2023-05-11T03:15:18.100Z,10.89
2023-05-11T03:16:23.960Z,10.89
2023-05-11T03:17:27.885Z,10.88
2023-05-11T03:18:31.665Z,10.87
2023-05-11T03:19:34.135Z,10.88
2023-05-11T03:20:40.757Z,10.88
2023-05-11T03:21:43.356Z,10.88
2023-05-11T03:22:46.650Z,10.86
2023-05-11T03:23:50.032Z,10.85
2023-05-11T03:24:53.208Z,10.86
2023-05-11T03:25:56.560Z,10.85
2023-05-11T03:27:02.666Z,10.85
2023-05-11T03:28:07.448Z,10.84
2023-05-11T03:29:13.519Z,10.85
2023-05-11T03:30:17.823Z,10.84
2023-05-11T03:31:23.871Z,10.84
2023-05-11T03:32:27.714Z,10.84
2023-05-11T03:33:30.899Z,10.83
2023-05-11T03:34:34.294Z,10.82
2023-05-11T03:35:38.026Z,10.83
2023-05-11T03:36:41.233Z,10.80
2023-05-11T03:37:45.874Z,10.80
2023-05-11T03:38:50.617Z,10.80
2023-05-11T03:39:59.802Z,10.80
2023-05-11T03:41:03.954Z,10.79
2023-05-11T03:42:10.037Z,10.78
2023-05-11T03:43:16.710Z,10.78
2023-05-11T03:44:24.199Z,10.79
2023-05-11T03:45:30.243Z,10.78
2023-05-11T03:46:36.465Z,10.77
2023-05-11T03:47:41.400Z,10.77
2023-05-11T03:48:45.523Z,10.77
2023-05-11T03:49:53.343Z,10.78
2023-05-11T03:50:56.363Z,10.77
2023-05-11T03:51:59.563Z,10.78
2023-05-11T03:53:02.719Z,10.78
2023-05-11T03:54:07.178Z,10.79
2023-05-11T03:55:10.958Z,10.78
2023-05-11T03:56:13.354Z,10.79
2023-05-11T03:57:16.234Z,10.79
2023-05-11T03:58:18.527Z,10.81
2023-05-11T03:59:21.206Z,10.82
2023-05-11T04:00:23.652Z,10.82
2023-05-11T04:01:27.019Z,10.81
2023-05-11T04:02:29.415Z,10.82
2023-05-11T04:03:31.914Z,10.82
2023-05-11T04:04:36.280Z,10.81
2023-05-11T04:05:38.589Z,10.82
2023-05-11T04:06:43.938Z,10.85
2023-05-11T04:07:52.384Z,10.88
2023-05-11T04:08:55.962Z,10.88
2023-05-11T04:09:58.258Z,10.89
2023-05-11T04:11:00.614Z,10.90
2023-05-11T04:12:03.942Z,10.91
2023-05-11T04:13:06.378Z,10.92
2023-05-11T04:14:08.708Z,10.94
2023-05-11T04:15:11.469Z,10.97
2023-05-11T04:16:13.843Z,10.98
2023-05-11T04:17:17.528Z,11.00
2023-05-11T04:18:20.322Z,11.00
2023-05-11T04:19:22.633Z,11.04
2023-05-11T04:20:25.402Z,11.05
2023-05-11T04:21:27.994Z,11.07
2023-05-11T04:22:30.380Z,11.09
2023-05-11T04:23:32.606Z,11.11
2023-05-11T04:24:35.264Z,11.14
2023-05-11T04:25:37.757Z,11.16
2023-05-11T04:26:40.009Z,11.19
2023-05-11T04:27:42.241Z,11.23
2023-05-11T04:28:44.502Z,11.26
2023-05-11T04:29:46.793Z,11.29
2023-05-11T04:30:54.548Z,11.31
2023-05-11T04:31:57.464Z,11.34
2023-05-11T04:33:02.253Z,11.38
2023-05-11T04:34:08.991Z,11.41
2023-05-11T04:35:12.436Z,11.44
2023-05-11T04:36:17.000Z,11.48
2023-05-11T04:37:19.605Z,11.51
2023-05-11T04:38:23.123Z,11.55
2023-05-11T04:39:25.501Z,11.58
2023-05-11T04:40:28.115Z,11.61
2023-05-11T04:41:30.766Z,11.65
2023-05-11T04:42:34.742Z,11.68
2023-05-11T04:43:38.897Z,11.74
2023-05-11T04:44:43.707Z,11.78
2023-05-11T04:45:50.265Z,11.82
2023-05-11T04:46:57.805Z,11.87
2023-05-11T04:48:00.285Z,11.92
2023-05-11T04:49:02.655Z,11.97
2023-05-11T04:50:06.481Z,12.01
2023-05-11T04:51:11.112Z,12.06
2023-05-11T04:52:17.297Z,12.11
2023-05-11T04:53:23.666Z,12.16
2023-05-11T04:54:26.000Z,12.22
2023-05-11T04:55:28.394Z,12.28
2023-05-11T04:56:31.744Z,12.35
2023-05-11T04:57:34.981Z,12.43
2023-05-11T04:58:38.604Z,12.51
2023-05-11T04:59:41.087Z,12.58
2023-05-11T05:00:43.382Z,12.67
2023-05-11T05:01:45.702Z,12.75
2023-05-11T05:02:50.976Z,12.83
2023-05-11T05:03:53.316Z,12.92
2023-05-11T05:04:55.750Z,13.00
2023-05-11T05:05:59.011Z,13.09
2023-05-11T05:07:01.708Z,13.20
2023-05-11T05:08:04.268Z,13.29
2023-05-11T05:09:07.063Z,13.37
2023-05-11T05:10:12.723Z,13.46
2023-05-11T05:11:15.308Z,13.53
2023-05-11T05:12:17.697Z,13.59
2023-05-11T05:13:20.034Z,13.69
2023-05-11T05:14:22.301Z,13.76
2023-05-11T05:15:24.753Z,13.82
2023-05-11T05:16:27.114Z,13.90
2023-05-11T05:17:29.928Z,13.94
2023-05-11T05:18:32.552Z,14.01
2023-05-11T05:19:35.239Z,14.08
2023-05-11T05:20:37.705Z,14.11
2023-05-11T05:21:40.858Z,14.17
2023-05-11T05:22:43.229Z,14.22
2023-05-11T05:23:45.698Z,14.28
2023-05-11T05:24:48.021Z,14.33
2023-05-11T05:25:50.328Z,14.37
2023-05-11T05:26:52.681Z,14.41
2023-05-11T05:27:55.018Z,14.45
2023-05-11T05:28:57.311Z,14.49
2023-05-11T05:30:00.430Z,14.51
2023-05-11T05:31:02.874Z,14.56
2023-05-11T05:32:05.547Z,14.59
2023-05-11T05:33:08.143Z,14.62
2023-05-11T05:34:12.204Z,14.62
2023-05-11T05:35:15.321Z,14.65
2023-05-11T05:36:19.186Z,14.67
2023-05-11T05:37:22.947Z,14.70
2023-05-11T05:39:27.650Z,14.72
2023-05-11T05:40:29.978Z,14.73
2023-05-11T05:41:32.676Z,14.77
2023-05-11T05:42:35.684Z,14.78
2023-05-11T05:43:38.497Z,14.80
2023-05-11T05:44:42.083Z,14.81
2023-05-11T05:45:44.394Z,14.83
2023-05-11T05:46:46.787Z,14.86
2023-05-11T05:47:49.530Z,14.88
2023-05-11T05:48:52.216Z,14.88
2023-05-11T05:49:55.006Z,14.92
2023-05-11T05:50:57.353Z,14.95
2023-05-11T05:52:00.858Z,14.96
2023-05-11T05:53:03.500Z,15.01
2023-05-11T05:54:06.918Z,15.05
2023-05-11T05:55:09.360Z,15.12
2023-05-11T05:56:11.916Z,15.17
2023-05-11T05:57:15.963Z,15.22
2023-05-11T05:58:20.215Z,15.29
2023-05-11T05:59:24.552Z,15.35
2023-05-11T06:00:32.389Z,15.41
2023-05-11T06:01:46.522Z,15.48
2023-05-11T06:02:50.776Z,15.57
2023-05-11T06:04:01.662Z,15.64
2023-05-11T06:05:04.579Z,15.71
2023-05-11T06:06:07.538Z,15.77
2023-05-11T06:07:09.838Z,15.80
2023-05-11T06:08:12.659Z,15.84
2023-05-11T06:09:15.206Z,15.89
2023-05-11T06:10:17.972Z,15.93
2023-05-11T06:11:22.785Z,15.98
2023-05-11T06:12:27.153Z,16.02
2023-05-11T06:13:31.418Z,16.06
2023-05-11T06:14:35.607Z,16.10
2023-05-11T06:15:39.465Z,16.15
2023-05-11T06:16:49.426Z,16.19
2023-05-11T06:17:51.787Z,16.21
2023-05-11T06:18:54.114Z,16.24
2023-05-11T06:19:56.478Z,16.26
2023-05-11T06:21:02.204Z,16.30
2023-05-11T06:22:07.076Z,16.34
2023-05-11T06:23:12.133Z,16.37
2023-05-11T06:24:16.211Z,16.39
2023-05-11T06:25:20.208Z,16.42
2023-05-11T06:26:25.337Z,16.46
2023-05-11T06:27:28.319Z,16.49
2023-05-11T06:28:32.697Z,16.54
2023-05-11T06:29:39.170Z,16.55
2023-05-11T06:30:41.452Z,16.60
2023-05-11T06:31:44.796Z,16.65
2023-05-11T06:32:47.133Z,16.67
2023-05-11T06:33:51.500Z,16.71
2023-05-11T06:35:00.636Z,16.76
2023-05-11T06:36:07.085Z,16.79
2023-05-11T06:37:11.617Z,16.86
2023-05-11T06:38:13.875Z,16.87
2023-05-11T06:39:16.643Z,16.92
2023-05-11T06:40:19.244Z,16.96
2023-05-11T06:41:21.825Z,17.01
2023-05-11T06:42:24.229Z,17.03
2023-05-11T06:43:26.994Z,17.07
2023-05-11T06:44:29.555Z,17.08
2023-05-11T06:45:33.348Z,17.12
2023-05-11T06:46:35.942Z,17.15
2023-05-11T06:47:39.536Z,17.19
2023-05-11T06:48:42.417Z,17.21
2023-05-11T06:49:45.176Z,17.23
2023-05-11T06:50:47.475Z,17.27
2023-05-11T06:51:50.021Z,17.31
2023-05-11T06:52:52.386Z,17.35
2023-05-11T06:53:54.657Z,17.39
2023-05-11T06:54:57.097Z,17.42
2023-05-11T06:55:59.606Z,17.45
2023-05-11T06:57:05.002Z,17.46
2023-05-11T06:58:07.642Z,17.49
2023-05-11T06:59:09.955Z,17.53
2023-05-11T07:00:12.946Z,17.57
2023-05-11T07:01:16.245Z,17.63
2023-05-11T07:02:18.582Z,17.66
2023-05-11T07:03:20.905Z,17.71
2023-05-11T07:04:23.180Z,17.76
2023-05-11T07:05:25.559Z,17.80
2023-05-11T07:06:28.031Z,17.84
2023-05-11T07:07:30.285Z,17.87
2023-05-11T07:08:34.040Z,17.93
2023-05-11T07:09:36.296Z,17.99
2023-05-11T07:10:38.609Z,18.05
2023-05-11T07:11:41.588Z,18.09
2023-05-11T07:12:43.877Z,18.14
2023-05-11T07:13:46.267Z,18.19
2023-05-11T07:14:48.526Z,18.25
2023-05-11T07:15:50.733Z,18.32
2023-05-11T07:16:53.155Z,18.36
2023-05-11T07:17:55.705Z,18.43
2023-05-11T07:18:58.136Z,18.45
2023-05-11T07:20:00.490Z,18.45
2023-05-11T07:21:02.796Z,18.49
2023-05-11T07:22:06.262Z,18.57
2023-05-11T07:23:08.806Z,18.63
2023-05-11T07:24:11.265Z,18.68
2023-05-11T07:25:13.608Z,18.67
2023-05-11T07:26:15.901Z,18.73
2023-05-11T07:27:18.136Z,18.76
2023-05-11T07:28:20.819Z,18.82
2023-05-11T07:29:23.224Z,18.89
2023-05-11T07:30:25.894Z,18.94
2023-05-11T07:31:30.277Z,18.99
2023-05-11T07:32:32.762Z,19.04
2023-05-11T07:33:38.083Z,19.09
2023-05-11T07:34:41.371Z,19.13
2023-05-11T07:35:43.687Z,19.17
2023-05-11T07:36:46.944Z,19.20
2023-05-11T07:37:49.209Z,19.27
2023-05-11T07:38:51.451Z,19.32
2023-05-11T07:39:54.503Z,19.36
2023-05-11T07:40:57.036Z,19.42
2023-05-11T07:41:59.595Z,19.45
2023-05-11T07:43:02.066Z,19.49
2023-05-11T07:44:04.409Z,19.57
2023-05-11T07:45:07.129Z,19.63
2023-05-11T07:46:09.550Z,19.69
2023-05-11T07:47:12.234Z,19.77
2023-05-11T07:48:14.597Z,19.84
2023-05-11T07:49:22.953Z,19.92
2023-05-11T07:50:34.493Z,19.97
2023-05-11T07:51:37.506Z,20.02
2023-05-11T07:52:39.821Z,20.07
2023-05-11T07:53:42.080Z,20.13
2023-05-11T07:54:44.913Z,20.19
2023-05-11T07:55:47.307Z,20.25
2023-05-11T07:56:50.785Z,20.30
2023-05-11T07:57:54.579Z,20.35
2023-05-11T07:58:58.244Z,20.40
2023-05-11T08:00:01.997Z,20.47
2023-05-11T08:01:14.036Z,20.52
2023-05-11T08:02:16.904Z,20.61
2023-05-11T08:03:19.276Z,20.67
2023-05-11T08:04:21.545Z,20.70
2023-05-11T08:05:23.835Z,20.76
2023-05-11T08:06:26.105Z,20.82
2023-05-11T08:07:29.576Z,20.86
2023-05-11T08:08:31.819Z,20.93
2023-05-11T08:09:34.383Z,20.96
2023-05-11T08:10:37.299Z,20.99
2023-05-11T08:11:39.549Z,21.02
2023-05-11T08:12:41.929Z,21.07
2023-05-11T08:13:44.347Z,21.14
2023-05-11T08:14:46.666Z,21.18
2023-05-11T08:15:49.108Z,21.24
2023-05-11T08:16:51.424Z,21.26
2023-05-11T08:17:54.138Z,21.32
2023-05-11T08:18:56.498Z,21.33
2023-05-11T08:19:59.227Z,21.32
2023-05-11T08:21:01.760Z,21.35
2023-05-11T08:22:04.668Z,21.35
2023-05-11T08:23:06.964Z,21.38
2023-05-11T08:24:09.532Z,21.41
2023-05-11T08:25:11.909Z,21.42
2023-05-11T08:26:14.170Z,21.46
2023-05-11T08:27:16.727Z,21.50
2023-05-11T08:28:20.042Z,21.54
2023-05-11T08:29:22.444Z,21.60
2023-05-11T08:30:24.737Z,21.66
2023-05-11T08:31:27.167Z,21.71
2023-05-11T08:32:29.777Z,21.74
2023-05-11T08:33:37.985Z,21.78
2023-05-11T08:34:41.259Z,21.78
2023-05-11T08:35:45.323Z,21.79
2023-05-11T08:36:48.198Z,21.83
2023-05-11T08:37:50.473Z,21.83
2023-05-11T08:38:57.005Z,21.86
2023-05-11T08:40:01.298Z,21.88
2023-05-11T08:41:03.745Z,21.90
2023-05-11T08:42:07.350Z,21.91
2023-05-11T08:43:10.504Z,21.91
2023-05-11T08:44:14.939Z,21.89
2023-05-11T08:45:18.095Z,21.94
2023-05-11T08:46:22.947Z,21.94
2023-05-11T08:47:25.595Z,21.95
2023-05-11T08:48:28.967Z,21.97
2023-05-11T08:49:31.524Z,21.98
2023-05-11T08:50:34.179Z,22.01
2023-05-11T08:51:36.611Z,22.04
2023-05-11T08:52:40.904Z,22.04
2023-05-11T08:53:43.169Z,22.06
2023-05-11T08:54:46.284Z,22.11
2023-05-11T08:55:51.643Z,22.11
2023-05-11T08:56:55.237Z,22.12
2023-05-11T08:58:00.866Z,22.15
2023-05-11T08:59:05.395Z,22.16
2023-05-11T09:00:08.529Z,22.22
2023-05-11T09:01:12.470Z,22.24
2023-05-11T09:02:19.375Z,22.28
2023-05-11T09:03:21.804Z,22.32
2023-05-11T09:04:25.166Z,22.35
2023-05-11T09:05:28.310Z,22.33
2023-05-11T09:06:31.452Z,22.37
2023-05-11T09:07:37.543Z,22.43
2023-05-11T09:08:40.116Z,22.47
2023-05-11T09:09:42.574Z,22.48
2023-05-11T09:10:45.294Z,22.52
2023-05-11T09:11:47.829Z,22.54
2023-05-11T09:12:50.123Z,22.56
2023-05-11T09:13:52.610Z,22.55
2023-05-11T09:14:55.007Z,22.60
2023-05-11T09:16:04.153Z,22.61
2023-05-11T09:17:06.791Z,22.63
2023-05-11T09:18:09.128Z,22.66
2023-05-11T09:19:18.388Z,22.70
2023-05-11T09:20:29.352Z,22.77
2023-05-11T09:21:32.417Z,22.78
2023-05-11T09:22:41.274Z,22.78
2023-05-11T09:23:43.963Z,22.80
2023-05-11T09:24:47.739Z,22.80
2023-05-11T09:25:51.206Z,22.77
2023-05-11T09:27:09.714Z,22.76
2023-05-11T09:28:15.865Z,22.74
2023-05-11T09:29:19.874Z,22.78
2023-05-11T09:30:23.978Z,22.80
2023-05-11T09:31:39.105Z,22.82
2023-05-11T09:32:57.945Z,22.84
2023-05-11T09:34:21.373Z,22.85
2023-05-11T09:35:30.489Z,22.87
2023-05-11T09:36:32.773Z,22.87
2023-05-11T09:37:35.161Z,22.87
2023-05-11T09:38:38.834Z,22.86
2023-05-11T09:39:57.445Z,22.86
2023-05-11T09:41:05.056Z,22.87
2023-05-11T09:42:14.379Z,22.89
2023-05-11T09:43:27.278Z,22.90
2023-05-11T09:44:32.038Z,22.91
2023-05-11T09:45:44.643Z,22.91
2023-05-11T09:46:47.876Z,22.86
2023-05-11T09:47:50.277Z,22.83
2023-05-11T09:49:00.913Z,22.83
2023-05-11T09:50:16.700Z,22.85
2023-05-11T09:51:31.282Z,22.88
2023-05-11T09:52:33.644Z,22.89
2023-05-11T09:53:45.606Z,22.90
2023-05-11T09:54:50.619Z,22.91
2023-05-11T09:55:54.763Z,22.86
2023-05-11T09:57:00.437Z,22.88
2023-05-11T09:58:04.617Z,22.88
2023-05-11T09:59:06.973Z,22.88
2023-05-11T10:00:15.182Z,22.89
2023-05-11T10:01:29.012Z,22.86
2023-05-11T10:02:32.354Z,22.89
2023-05-11T10:03:46.168Z,22.91
2023-05-11T10:04:49.763Z,22.92
2023-05-11T10:06:00.064Z,22.94
2023-05-11T10:07:02.478Z,22.97
2023-05-11T10:08:06.321Z,22.99
2023-05-11T10:09:09.603Z,23.03
2023-05-11T10:10:12.745Z,23.00
2023-05-11T10:11:15.277Z,22.99
2023-05-11T10:12:21.455Z,23.01
2023-05-11T10:13:27.336Z,23.06
2023-05-11T10:14:32.300Z,23.09
2023-05-11T10:15:37.131Z,23.09
2023-05-11T10:16:42.580Z,23.09
2023-05-11T10:17:45.231Z,23.10
2023-05-11T10:18:48.669Z,23.12
2023-05-11T10:19:52.028Z,23.12
2023-05-11T10:20:55.960Z,23.13
2023-05-11T10:22:00.600Z,23.13
2023-05-11T10:23:03.583Z,23.12
2023-05-11T10:24:06.963Z,23.11
2023-05-11T10:25:10.213Z,23.10
2023-05-11T10:26:13.528Z,23.08
2023-05-11T10:27:16.008Z,23.08
2023-05-11T10:28:21.351Z,23.12
2023-05-11T10:29:24.217Z,23.11
2023-05-11T10:30:27.207Z,23.11
2023-05-11T10:31:30.108Z,23.09
2023-05-11T10:32:37.708Z,23.09
2023-05-11T10:33:41.945Z,23.06
2023-05-11T10:34:46.590Z,23.07
2023-05-11T10:35:50.317Z,23.05
2023-05-11T10:36:53.840Z,23.07
2023-05-11T10:37:56.248Z,23.06
2023-05-11T10:38:59.074Z,23.03
2023-05-11T10:40:01.732Z,23.07
2023-05-11T10:41:22.444Z,23.02
2023-05-11T10:42:37.820Z,23.03
2023-05-11T10:44:03.508Z,23.01
2023-05-11T10:45:26.679Z,23.01
2023-05-11T10:46:56.865Z,22.99
2023-05-11T10:48:46.010Z,23.00
2023-05-11T10:50:13.573Z,23.02
2023-05-11T10:52:00.955Z,22.98
2023-05-11T10:53:22.578Z,22.96
2023-05-11T10:55:07.801Z,22.93
2023-05-11T10:56:31.996Z,22.93
2023-05-11T10:58:07.929Z,22.89
2023-05-11T10:59:29.770Z,22.88
2023-05-11T11:01:08.614Z,22.83
2023-05-11T11:02:11.152Z,22.85
2023-05-11T11:03:14.874Z,22.82
2023-05-11T11:04:17.577Z,22.84
2023-05-11T11:05:38.314Z,22.81
2023-05-11T11:06:44.377Z,22.79
2023-05-11T11:08:00.459Z,22.78
2023-05-11T11:09:06.247Z,22.78
2023-05-11T11:10:09.334Z,22.79
2023-05-11T11:11:32.219Z,22.79
2023-05-11T11:12:37.703Z,22.80
2023-05-11T11:14:02.608Z,22.79
2023-05-11T11:15:07.175Z,22.77
2023-05-11T11:16:09.726Z,22.74
2023-05-11T11:17:21.060Z,22.69
2023-05-11T11:18:31.395Z,22.68
2023-05-11T11:19:33.762Z,22.68
2023-05-11T11:20:47.372Z,22.68
2023-05-11T11:21:49.656Z,22.65
2023-05-11T11:22:52.709Z,22.65
2023-05-11T11:23:55.127Z,22.59
2023-05-11T11:24:57.459Z,22.58
2023-05-11T11:25:59.883Z,22.58
2023-05-11T11:27:02.249Z,22.53
2023-05-11T11:28:04.696Z,22.53
2023-05-11T11:29:11.522Z,22.48
2023-05-11T11:30:29.099Z,22.48
2023-05-11T11:31:33.151Z,22.44
2023-05-11T11:32:35.972Z,22.44
2023-05-11T11:33:38.245Z,22.42
2023-05-11T11:34:40.513Z,22.37
2023-05-11T11:35:43.035Z,22.39
2023-05-11T11:37:04.572Z,22.38
2023-05-11T11:38:20.638Z,22.36
2023-05-11T11:39:25.585Z,22.36
2023-05-11T11:40:49.605Z,22.35
2023-05-11T11:42:07.464Z,22.34
2023-05-11T11:43:17.818Z,22.32
2023-05-11T11:44:23.201Z,22.29
2023-05-11T11:45:31.236Z,22.30
2023-05-11T11:46:33.574Z,22.28
2023-05-11T11:47:35.922Z,22.30
2023-05-11T11:48:40.918Z,22.30
2023-05-11T11:50:13.828Z,22.25
2023-05-11T11:51:16.376Z,22.23
2023-05-11T11:52:28.069Z,22.24
2023-05-11T11:53:36.169Z,22.25
2023-05-11T11:54:45.168Z,22.25
2023-05-11T11:55:49.138Z,22.22
2023-05-11T11:56:51.736Z,22.22
2023-05-11T11:57:54.049Z,22.21
2023-05-11T11:58:56.272Z,22.23
2023-05-11T12:00:07.035Z,22.23
2023-05-11T12:01:20.087Z,22.22
2023-05-11T12:02:23.606Z,22.21
2023-05-11T12:03:26.404Z,22.22
2023-05-11T12:04:39.402Z,22.21
2023-05-11T12:05:45.186Z,22.22
2023-05-11T12:06:56.280Z,22.23
2023-05-11T12:08:04.491Z,22.26
2023-05-11T12:09:08.431Z,22.27
2023-05-11T12:10:13.171Z,22.29
2023-05-11T12:11:17.856Z,22.27
2023-05-11T12:12:21.185Z,22.23
2023-05-11T12:13:25.317Z,22.26
2023-05-11T12:14:28.626Z,22.25
2023-05-11T12:15:34.470Z,22.26
2023-05-11T12:16:36.741Z,22.26
2023-05-11T12:17:39.279Z,22.25
2023-05-11T12:18:42.944Z,22.26
2023-05-11T12:19:45.833Z,22.26
2023-05-11T12:20:50.928Z,22.23
2023-05-11T12:21:53.282Z,22.24
2023-05-11T12:22:56.710Z,22.25
2023-05-11T12:24:03.916Z,22.22
2023-05-11T12:25:08.476Z,22.25
2023-05-11T12:26:10.780Z,22.22
2023-05-11T12:27:13.050Z,22.18
2023-05-11T12:28:19.755Z,22.16
2023-05-11T12:29:22.119Z,22.17
2023-05-11T12:30:26.602Z,22.13
2023-05-11T12:31:34.730Z,22.13
2023-05-11T12:32:37.172Z,22.12
2023-05-11T12:33:50.194Z,22.12
2023-05-11T12:35:04.450Z,22.08
2023-05-11T12:36:07.264Z,22.04
2023-05-11T12:37:09.655Z,22.06
2023-05-11T12:38:12.293Z,22.04
2023-05-11T12:39:18.251Z,22.05
2023-05-11T12:40:20.679Z,22.01
2023-05-11T12:41:23.966Z,21.99
2023-05-11T12:42:26.617Z,21.97
2023-05-11T12:43:28.933Z,21.98
2023-05-11T12:44:32.847Z,21.95
2023-05-11T12:45:35.133Z,21.95
2023-05-11T12:46:37.860Z,21.97
2023-05-11T12:47:40.602Z,21.97
2023-05-11T12:48:43.315Z,21.97
2023-05-11T12:49:45.669Z,21.92
2023-05-11T12:50:47.983Z,21.94
2023-05-11T12:51:57.447Z,21.93
2023-05-11T12:53:19.627Z,21.92
2023-05-11T12:54:33.963Z,21.91
2023-05-11T12:55:36.230Z,21.89
2023-05-11T12:56:48.580Z,21.87
2023-05-11T12:57:54.735Z,21.82
2023-05-11T12:58:57.033Z,21.77
2023-05-11T13:00:11.933Z,21.76
2023-05-11T13:01:14.262Z,21.67
2023-05-11T13:02:19.409Z,21.61
2023-05-11T13:03:26.803Z,21.57
2023-05-11T13:04:30.746Z,21.53
2023-05-11T13:05:33.047Z,21.50
2023-05-11T13:06:35.863Z,21.40
2023-05-11T13:07:38.198Z,21.38
2023-05-11T13:08:45.655Z,21.37
2023-05-11T13:09:56.433Z,21.32
2023-05-11T13:11:27.017Z,21.27
2023-05-11T13:12:32.265Z,21.18
2023-05-11T13:13:34.864Z,21.14
2023-05-11T13:14:37.157Z,21.10
2023-05-11T13:15:52.561Z,21.05
2023-05-11T13:16:54.977Z,20.99
2023-05-11T13:18:03.694Z,20.98
2023-05-11T13:19:08.659Z,20.96
2023-05-11T13:20:26.925Z,20.93
2023-05-11T13:21:30.155Z,20.91
2023-05-11T13:22:32.513Z,20.88
2023-05-11T13:23:34.833Z,20.85
2023-05-11T13:24:37.087Z,20.85
2023-05-11T13:25:45.501Z,20.83
2023-05-11T13:26:47.837Z,20.82
2023-05-11T13:27:50.129Z,20.83
2023-05-11T13:29:08.564Z,20.81
2023-05-11T13:30:14.249Z,20.81
2023-05-11T13:31:17.252Z,20.76
2023-05-11T13:32:19.610Z,20.74
2023-05-11T13:33:22.210Z,20.74
2023-05-11T13:34:25.633Z,20.74
2023-05-11T13:35:27.918Z,20.71
2023-05-11T13:36:30.170Z,20.72
2023-05-11T13:37:32.598Z,20.73
2023-05-11T13:38:34.903Z,20.73
2023-05-11T13:39:37.435Z,20.77
2023-05-11T13:40:40.228Z,20.74
2023-05-11T13:41:42.742Z,20.77
2023-05-11T13:42:45.007Z,20.77
2023-05-11T13:43:48.889Z,20.78
2023-05-11T13:44:51.192Z,20.80
2023-05-11T13:45:53.467Z,20.79
2023-05-11T13:46:55.917Z,20.79
2023-05-11T13:47:58.265Z,20.77
2023-05-11T13:49:00.988Z,20.78
2023-05-11T13:50:03.987Z,20.78
2023-05-11T13:51:06.255Z,20.76
2023-05-11T13:52:09.012Z,20.77
2023-05-11T13:53:13.543Z,20.78
2023-05-11T13:54:16.115Z,20.79
2023-05-11T13:55:18.926Z,20.79
2023-05-11T13:56:22.272Z,20.79
2023-05-11T13:57:24.717Z,20.80
2023-05-11T13:58:27.192Z,20.81
2023-05-11T13:59:29.425Z,20.81
2023-05-11T14:00:32.049Z,20.82
2023-05-11T14:01:34.388Z,20.84
2023-05-11T14:02:36.918Z,20.85
2023-05-11T14:03:40.098Z,20.88